createdAt,value
2018-05-25T00:01:33.265Z,93742.33
2018-05-25T00:04:00.824Z,93743.34
2018-05-25T00:06:28.374Z,93741.67
2018-05-25T00:08:55.969Z,93748.31
2018-05-25T00:11:23.519Z,93746.38
2018-05-25T00:13:51.068Z,93747.48
2018-05-25T00:16:18.660Z,93750.52
2018-05-25T00:18:46.211Z,93747.48
2018-05-25T00:21:13.748Z,93750.02
2018-05-25T00:23:41.643Z,93754.09
2018-05-25T00:26:09.201Z,93753.84
2018-05-25T00:28:36.754Z,93763.23
2018-05-25T00:31:04.703Z,93764.49
2018-05-25T00:33:32.239Z,93763.59
2018-05-25T00:35:59.800Z,93764.38
2018-05-25T00:38:27.397Z,93760.99
2018-05-25T00:40:54.946Z,93756.84
2018-05-25T00:43:22.491Z,93749.27
2018-05-25T00:45:50.076Z,93746.58
2018-05-25T00:48:17.620Z,93747.20
2018-05-25T00:50:45.164Z,93743.89
2018-05-25T00:53:12.735Z,93744.52
2018-05-25T00:55:41.212Z,93736.80
2018-05-25T00:58:08.755Z,93741.67
2018-05-25T01:00:36.419Z,93737.66
2018-05-25T01:03:03.955Z,93741.64
2018-05-25T01:05:31.502Z,93741.42
2018-05-25T01:07:59.425Z,93741.20
2018-05-25T01:10:26.978Z,93740.03
2018-05-25T01:12:54.525Z,93736.61
2018-05-25T01:15:22.095Z,93738.13
2018-05-25T01:17:49.631Z,93734.05
2018-05-25T01:20:18.023Z,93733.28
2018-05-25T01:22:45.699Z,93731.64
2018-05-25T01:25:13.255Z,93730.34
2018-05-25T01:27:40.829Z,93732.62
2018-05-25T01:30:08.544Z,93732.96
2018-05-25T01:32:36.087Z,93725.89
2018-05-25T01:35:03.673Z,93727.09
2018-05-25T01:37:31.265Z,93725.14
2018-05-25T01:39:58.804Z,93736.14
2018-05-25T01:42:26.345Z,93728.98
2018-05-25T01:44:53.947Z,93730.22
2018-05-25T01:47:21.478Z,93731.60
2018-05-25T01:49:49.009Z,93734.03
2018-05-25T01:52:16.796Z,93735.63
2018-05-25T01:54:44.343Z,93736.52
2018-05-25T01:57:11.887Z,93737.14
2018-05-25T01:59:39.455Z,93736.68
2018-05-25T02:02:06.996Z,93737.80
2018-05-25T02:04:34.539Z,93734.44
2018-05-25T02:07:02.260Z,93732.36
2018-05-25T02:09:29.813Z,93739.94
2018-05-25T02:11:57.353Z,93737.77
2018-05-25T02:14:25.082Z,93739.45
2018-05-25T02:16:52.620Z,93734.80
2018-05-25T02:19:20.171Z,93735.02
2018-05-25T02:21:47.753Z,93738.50
2018-05-25T02:24:15.291Z,93736.68
2018-05-25T02:26:42.866Z,93735.65
2018-05-25T02:29:10.433Z,93739.12
2018-05-25T02:31:37.965Z,93736.72
2018-05-25T02:34:05.614Z,93733.98
2018-05-25T02:36:33.528Z,93741.73
2018-05-25T02:39:01.060Z,93749.88
2018-05-25T02:41:28.607Z,93746.44
2018-05-25T02:43:56.212Z,93739.91
2018-05-25T02:46:23.762Z,93747.73
2018-05-25T02:48:51.300Z,93747.88
2018-05-25T02:51:18.867Z,93754.98
2018-05-25T02:53:46.412Z,93755.08
2018-05-25T02:56:13.953Z,93753.28
2018-05-25T02:58:41.527Z,93750.53
2018-05-25T03:01:09.065Z,93756.87
2018-05-25T03:03:36.606Z,93759.07
2018-05-25T03:06:04.368Z,93753.34
2018-05-25T03:08:31.903Z,93755.59
2018-05-25T03:10:59.436Z,93756.79
2018-05-25T03:13:27.005Z,93751.00
2018-05-25T03:15:54.540Z,93758.78
2018-05-25T03:18:22.104Z,93761.25
2018-05-25T03:20:49.990Z,93757.32
2018-05-25T03:23:17.538Z,93752.28
2018-05-25T03:25:45.081Z,93751.56
2018-05-25T03:28:12.759Z,93754.92
2018-05-25T03:30:40.302Z,93752.71
2018-05-25T03:33:07.868Z,93754.55
2018-05-25T03:35:35.433Z,93757.05
2018-05-25T03:38:02.962Z,93754.18
2018-05-25T03:40:30.507Z,93751.94
2018-05-25T03:42:58.225Z,93758.73
2018-05-25T03:45:25.764Z,93755.47
2018-05-25T03:47:53.315Z,93756.09
2018-05-25T03:50:20.890Z,93748.64
2018-05-25T03:52:48.429Z,93756.75
2018-05-25T03:55:15.963Z,93752.64
2018-05-25T03:57:43.689Z,93745.36
2018-05-25T04:00:22.860Z,93736.64
2018-05-25T04:02:50.538Z,93740.02
2018-05-25T04:05:18.076Z,93739.56
2018-05-25T04:07:45.620Z,93746.53
2018-05-25T04:10:13.333Z,93741.88
2018-05-25T04:12:41.770Z,93732.36
2018-05-25T04:15:09.311Z,93737.55
2018-05-25T04:17:37.042Z,93729.59
2018-05-25T04:20:04.592Z,93735.02
2018-05-25T04:22:32.145Z,93732.47
2018-05-25T04:25:00.043Z,93728.99
2018-05-25T04:27:27.585Z,93732.38
2018-05-25T04:29:55.119Z,93729.32
2018-05-25T04:32:22.693Z,93728.63
2018-05-25T04:34:50.239Z,93733.73
2018-05-25T04:37:17.798Z,93734.00
2018-05-25T04:39:45.689Z,93728.84
2018-05-25T04:42:13.237Z,93725.77
2018-05-25T04:44:40.774Z,93715.97
2018-05-25T04:47:08.454Z,93718.70
2018-05-25T04:49:36.011Z,93720.56
2018-05-25T04:52:03.565Z,93722.56
2018-05-25T04:54:31.293Z,93724.58
2018-05-25T04:56:58.864Z,93729.09
2018-05-25T04:59:26.416Z,93733.09
2018-05-25T05:01:54.134Z,93727.58
2018-05-25T05:04:21.683Z,93725.94
2018-05-25T05:06:49.236Z,93716.31
2018-05-25T05:09:17.160Z,93716.12
2018-05-25T05:11:44.712Z,93715.84
2018-05-25T05:14:12.312Z,93720.66
2018-05-25T05:16:39.889Z,93721.78
2018-05-25T05:19:07.449Z,93727.78
2018-05-25T05:21:34.993Z,93728.61
2018-05-25T05:24:02.577Z,93725.86
2018-05-25T05:26:30.273Z,93730.41
2018-05-25T05:28:57.827Z,93727.98
2018-05-25T05:31:25.399Z,93730.70
2018-05-25T05:33:52.944Z,93734.66
2018-05-25T05:36:20.499Z,93739.42
2018-05-25T05:38:48.407Z,93743.41
2018-05-25T05:41:15.957Z,93752.66
2018-05-25T05:43:43.497Z,93751.79
2018-05-25T05:46:11.399Z,93755.17
2018-05-25T05:48:38.951Z,93761.53
2018-05-25T05:51:06.503Z,93756.27
2018-05-25T05:53:34.277Z,93767.17
2018-05-25T05:56:01.816Z,93760.31
2018-05-25T05:58:29.364Z,93760.28
2018-05-25T06:00:56.966Z,93762.78
2018-05-25T06:03:24.513Z,93766.50
2018-05-25T06:05:52.070Z,93768.06
2018-05-25T06:08:19.667Z,93761.29
2018-05-25T06:10:47.238Z,93758.07
2018-05-25T06:13:14.804Z,93768.49
2018-05-25T06:15:42.560Z,93766.73
2018-05-25T06:18:10.132Z,93771.42
2018-05-25T06:20:37.671Z,93767.95
2018-05-25T06:23:05.266Z,93768.81
2018-05-25T06:25:32.814Z,93774.42
2018-05-25T06:28:00.346Z,93769.75
2018-05-25T06:30:28.256Z,93773.95
2018-05-25T06:32:55.816Z,93767.72
2018-05-25T06:35:23.380Z,93768.16
2018-05-25T06:37:50.972Z,93769.83
2018-05-25T06:40:18.534Z,93774.27
2018-05-25T06:42:46.080Z,93769.16
2018-05-25T06:45:13.723Z,93767.84
2018-05-25T06:47:41.411Z,93769.29
2018-05-25T06:50:08.979Z,93761.70
2018-05-25T06:52:36.709Z,93763.09
2018-05-25T06:55:04.264Z,93764.12
2018-05-25T06:57:31.840Z,93762.96
2018-05-25T06:59:59.744Z,93767.49
2018-05-25T07:02:27.306Z,93767.90
2018-05-25T07:04:54.852Z,93768.14
2018-05-25T07:07:22.439Z,93766.61
2018-05-25T07:09:50.002Z,93766.12
2018-05-25T07:12:17.546Z,93759.60
2018-05-25T07:14:45.123Z,93754.67
2018-05-25T07:17:12.668Z,93757.98
2018-05-25T07:19:40.217Z,93759.51
2018-05-25T07:22:07.809Z,93758.21
2018-05-25T07:24:35.379Z,93762.73
2018-05-25T07:27:02.928Z,93754.76
2018-05-25T07:29:30.683Z,93757.98
2018-05-25T07:31:58.245Z,93756.27
2018-05-25T07:34:25.797Z,93767.47
2018-05-25T07:36:53.383Z,93763.14
2018-05-25T07:39:20.961Z,93762.09
2018-05-25T07:41:48.513Z,93761.04
2018-05-25T07:44:16.135Z,93758.48
2018-05-25T07:46:43.679Z,93759.91
2018-05-25T07:49:11.229Z,93763.21
2018-05-25T07:51:38.828Z,93756.52
2018-05-25T07:54:06.368Z,93758.80
2018-05-25T07:56:33.913Z,93759.25
2018-05-25T07:59:01.635Z,93756.14
2018-05-25T08:01:29.171Z,93758.10
2018-05-25T08:03:56.711Z,93757.08
2018-05-25T08:06:24.431Z,93760.27
2018-05-25T08:08:51.965Z,93755.81
2018-05-25T08:11:19.587Z,93763.58
2018-05-25T08:13:47.264Z,93759.48
2018-05-25T08:16:14.812Z,93751.51
2018-05-25T08:18:42.348Z,93744.37
2018-05-25T08:21:10.263Z,93748.55
2018-05-25T08:23:37.834Z,93744.39
2018-05-25T08:26:05.395Z,93742.47
2018-05-25T08:28:33.003Z,93737.05
2018-05-25T08:31:00.568Z,93747.58
2018-05-25T08:33:28.116Z,93748.94
2018-05-25T08:35:55.693Z,93763.14
2018-05-25T08:38:23.232Z,93754.11
2018-05-25T08:40:50.809Z,93746.83
2018-05-25T08:43:18.557Z,93748.86
2018-05-25T08:45:46.095Z,93752.47
2018-05-25T08:48:13.645Z,93755.03
2018-05-25T08:50:41.230Z,93761.45
2018-05-25T08:53:08.772Z,93761.06
2018-05-25T08:55:36.318Z,93764.24
2018-05-25T08:58:03.920Z,93759.77
2018-05-25T09:00:31.521Z,93760.14
2018-05-25T09:09:41.355Z,93748.42
2018-05-25T09:12:08.815Z,93752.59
2018-05-25T09:14:36.370Z,93750.48
2018-05-25T09:17:04.048Z,93750.77
2018-05-25T09:19:31.596Z,93748.86
2018-05-25T09:21:59.186Z,93743.96
2018-05-25T09:24:26.765Z,93737.13
2018-05-25T09:26:54.312Z,93740.45
2018-05-25T09:29:21.877Z,93736.45
2018-05-25T09:31:49.489Z,93748.06
2018-05-25T09:34:17.042Z,93738.08
2018-05-25T09:36:44.572Z,93739.19
2018-05-25T09:39:12.167Z,93737.98
2018-05-25T09:41:39.725Z,93744.50
2018-05-25T09:44:07.289Z,93741.20
2018-05-25T09:46:34.867Z,93735.84
2018-05-25T09:49:02.408Z,93746.52
2018-05-25T09:51:29.960Z,93739.46
2018-05-25T09:53:57.691Z,93745.00
2018-05-25T09:56:25.268Z,93739.32
2018-05-25T09:58:52.805Z,93737.52
2018-05-25T10:01:20.391Z,93728.59
2018-05-25T10:03:47.922Z,93727.34
2018-05-25T10:06:15.465Z,93718.94
2018-05-25T10:08:43.365Z,93721.66
2018-05-25T10:11:10.903Z,93713.92
2018-05-25T10:13:38.457Z,93710.12
2018-05-25T10:16:06.055Z,93702.70
2018-05-25T10:18:33.724Z,93694.69
2018-05-25T10:21:01.269Z,93692.56
2018-05-25T10:23:28.846Z,93689.30
2018-05-25T10:25:56.396Z,93691.72
2018-05-25T10:28:23.953Z,93695.22
2018-05-25T10:30:51.513Z,93698.58
2018-05-25T10:33:19.067Z,93687.20
2018-05-25T10:35:46.609Z,93691.62
2018-05-25T10:38:14.199Z,93704.45
2018-05-25T10:40:41.773Z,93698.22
2018-05-25T10:43:09.332Z,93704.57
2018-05-25T10:45:36.917Z,93701.18
2018-05-25T10:48:05.168Z,93695.30
2018-05-25T10:50:32.716Z,93698.39
2018-05-25T10:53:00.300Z,93704.84
2018-05-25T10:55:27.842Z,93691.99
2018-05-25T10:57:55.392Z,93695.08
2018-05-25T11:00:22.955Z,93694.23
2018-05-25T11:02:50.540Z,93687.33
2018-05-25T11:05:18.101Z,93690.23
2018-05-25T11:07:45.776Z,93687.80
2018-05-25T11:10:13.310Z,93686.70
2018-05-25T11:12:40.864Z,93692.49
2018-05-25T11:15:08.622Z,93694.45
2018-05-25T11:17:36.175Z,93687.61
2018-05-25T11:20:03.773Z,93686.22
2018-05-25T11:22:31.544Z,93685.19
2018-05-25T11:24:59.123Z,93686.34
2018-05-25T11:27:26.664Z,93682.13
2018-05-25T11:29:54.244Z,93678.63
2018-05-25T11:32:21.813Z,93680.03
2018-05-25T11:34:49.378Z,93673.35
2018-05-25T11:37:16.943Z,93675.50
2018-05-25T11:39:44.508Z,93667.18
2018-05-25T11:42:12.057Z,93672.81
2018-05-25T11:44:39.986Z,93676.69
2018-05-25T11:47:07.594Z,93671.95
2018-05-25T11:49:35.154Z,93687.86
2018-05-25T11:52:02.733Z,93693.71
2018-05-25T11:54:30.276Z,93689.02
2018-05-25T11:56:57.819Z,93688.14
2018-05-25T11:59:25.612Z,93685.51
2018-05-25T12:01:53.176Z,93689.63
2018-05-25T12:04:20.690Z,93678.02
2018-05-25T12:06:48.276Z,93689.62
2018-05-25T12:09:15.825Z,93694.02
2018-05-25T12:11:43.372Z,93733.98
2018-05-25T12:14:11.064Z,93737.78
2018-05-25T12:16:38.608Z,93737.25
2018-05-25T12:19:06.166Z,93743.42
2018-05-25T12:21:33.902Z,93758.37
2018-05-25T12:24:01.459Z,93735.55
2018-05-25T12:26:29.025Z,93731.67
2018-05-25T12:28:56.602Z,93713.39
2018-05-25T12:31:24.139Z,93710.09
2018-05-25T12:33:51.673Z,93709.48
2018-05-25T12:36:19.274Z,93705.59
2018-05-25T12:38:46.826Z,93697.28
2018-05-25T12:41:14.382Z,93693.00
2018-05-25T12:43:41.950Z,93705.89
2018-05-25T12:46:09.495Z,93695.76
2018-05-25T12:48:37.062Z,93701.12
2018-05-25T12:51:04.658Z,93693.84
2018-05-25T12:53:32.218Z,93699.02
2018-05-25T12:55:59.770Z,93698.64
2018-05-25T12:58:27.500Z,93696.09
2018-05-25T13:00:55.056Z,93685.95
2018-05-25T13:03:22.603Z,93673.64
2018-05-25T13:05:50.317Z,93669.34
2018-05-25T13:08:17.866Z,93677.86
2018-05-25T13:10:45.403Z,93674.23
2018-05-25T13:13:12.960Z,93674.34
2018-05-25T13:15:40.519Z,93688.18
2018-05-25T13:18:08.059Z,93691.20
2018-05-25T13:20:35.648Z,93703.19
2018-05-25T13:23:03.192Z,93699.77
2018-05-25T13:25:30.763Z,93695.39
2018-05-25T13:27:58.354Z,93698.09
2018-05-25T13:30:25.914Z,93690.73
2018-05-25T13:32:53.459Z,93695.94
2018-05-25T13:35:21.175Z,93698.63
2018-05-25T13:37:48.728Z,93702.66
2018-05-25T13:40:16.266Z,93693.41
2018-05-25T13:42:43.860Z,93689.27
2018-05-25T13:45:11.389Z,93693.00
2018-05-25T13:47:38.928Z,93691.11
2018-05-25T13:50:06.670Z,93685.84
2018-05-25T13:52:34.206Z,93681.68
2018-05-25T13:55:01.763Z,93690.14
2018-05-25T13:57:29.526Z,93679.77
2018-05-25T13:59:57.097Z,93695.54
2018-05-25T14:02:24.645Z,93695.00
2018-05-25T14:04:52.200Z,93687.25
2018-05-25T14:07:19.744Z,93693.75
2018-05-25T14:09:47.315Z,93692.93
2018-05-25T14:12:14.860Z,93707.63
2018-05-25T14:14:42.426Z,93707.76
2018-05-25T14:17:10.101Z,93710.28
2018-05-25T14:19:37.639Z,93716.83
2018-05-25T14:22:05.180Z,93723.38
2018-05-25T14:24:33.233Z,93725.36
2018-05-25T14:27:00.802Z,93730.41
2018-05-25T14:29:28.362Z,93728.66
2018-05-25T14:31:56.004Z,93727.59
2018-05-25T14:34:23.548Z,93739.77
2018-05-25T14:36:51.082Z,93730.27
2018-05-25T14:39:18.874Z,93737.11
2018-05-25T14:41:46.417Z,93744.95
2018-05-25T14:44:13.957Z,93738.84
2018-05-25T14:46:41.581Z,93744.59
2018-05-25T14:49:09.141Z,93740.41
2018-05-25T14:51:36.710Z,93745.98
2018-05-25T14:54:04.496Z,93747.85
2018-05-25T14:56:32.034Z,93743.42
2018-05-25T14:58:59.615Z,93752.88
2018-05-25T15:01:27.189Z,93749.86
2018-05-25T15:03:54.721Z,93748.12
2018-05-25T15:06:22.268Z,93755.11
2018-05-25T15:08:49.990Z,93754.98
2018-05-25T15:11:17.551Z,93748.81
2018-05-25T15:13:45.105Z,93754.12
2018-05-25T15:16:12.794Z,93744.67
2018-05-25T15:18:40.348Z,93736.97
2018-05-25T15:21:07.908Z,93726.63
2018-05-25T15:23:35.635Z,93732.92
2018-05-25T15:26:03.187Z,93738.25
2018-05-25T15:28:30.735Z,93738.73
2018-05-25T15:30:58.556Z,93732.56
2018-05-25T15:33:25.981Z,93729.17
2018-05-25T15:35:53.521Z,93723.34
2018-05-25T15:38:21.280Z,93721.00
2018-05-25T15:40:48.833Z,93724.95
2018-05-25T15:43:16.383Z,93725.38
2018-05-25T15:45:43.976Z,93730.77
2018-05-25T15:48:11.547Z,93735.02
2018-05-25T15:50:39.140Z,93741.19
2018-05-25T15:53:06.732Z,93746.39
2018-05-25T15:55:34.281Z,93744.27
2018-05-25T15:58:01.849Z,93747.84
2018-05-25T16:00:29.557Z,93756.20
2018-05-25T16:02:57.115Z,93757.90
2018-05-25T16:05:24.664Z,93757.77
2018-05-25T16:07:52.373Z,93753.72
2018-05-25T16:10:19.916Z,93760.66
2018-05-25T16:12:47.477Z,93760.31
2018-05-25T16:15:15.391Z,93764.68
2018-05-25T16:17:42.950Z,93766.08
2018-05-25T16:20:10.529Z,93764.25
2018-05-25T16:22:38.106Z,93767.74
2018-05-25T16:25:05.690Z,93772.89
2018-05-25T16:27:33.239Z,93778.28
2018-05-25T16:30:00.828Z,93774.56
2018-05-25T16:32:28.368Z,93766.40
2018-05-25T16:34:55.904Z,93771.34
2018-05-25T16:37:23.476Z,93776.53
2018-05-25T16:39:51.031Z,93783.13
2018-05-25T16:42:18.581Z,93790.32
2018-05-25T16:44:46.303Z,93794.52
2018-05-25T16:47:13.856Z,93794.11
2018-05-25T16:49:41.405Z,93790.62
2018-05-25T16:52:08.981Z,93795.22
2018-05-25T16:54:36.511Z,93795.02
2018-05-25T16:57:04.058Z,93803.41
2018-05-25T16:59:31.797Z,93801.23
2018-05-25T17:01:59.344Z,93807.50
2018-05-25T17:04:26.882Z,93810.50
2018-05-25T17:06:54.483Z,93820.44
2018-05-25T17:09:22.036Z,93813.71
2018-05-25T17:11:49.594Z,93814.72
2018-05-25T17:14:17.504Z,93817.74
2018-05-25T17:16:45.075Z,93815.23
2018-05-25T17:19:12.616Z,93812.76
2018-05-25T17:21:40.191Z,93813.93
2018-05-25T17:24:07.740Z,93818.25
2018-05-25T17:26:35.333Z,93810.79
2018-05-25T17:29:03.252Z,93809.11
2018-05-25T17:31:30.807Z,93811.98
2018-05-25T17:33:58.351Z,93810.71
2018-05-25T17:36:26.870Z,93808.98
2018-05-25T17:38:54.432Z,93809.53
2018-05-25T17:41:22.006Z,93816.62
2018-05-25T17:43:49.616Z,93821.09
2018-05-25T17:46:17.165Z,93819.58
2018-05-25T17:48:44.719Z,93823.20
2018-05-25T17:51:12.405Z,93823.01
2018-05-25T17:53:39.960Z,93846.98
2018-05-25T17:56:07.515Z,93841.44
2018-05-25T17:58:35.257Z,93860.11
2018-05-25T18:01:02.834Z,93869.89
2018-05-25T18:03:30.385Z,93874.42
2018-05-25T18:05:57.939Z,93878.84
2018-05-25T18:08:25.477Z,93885.94
2018-05-25T18:10:53.859Z,93884.88
2018-05-25T18:13:21.467Z,93900.70
2018-05-25T18:15:49.021Z,93910.04
2018-05-25T18:18:16.601Z,93915.01
2018-05-25T18:20:44.156Z,93930.02
2018-05-25T18:23:11.727Z,93914.28
2018-05-25T18:25:39.637Z,93903.91
2018-05-25T18:28:07.176Z,93908.27
2018-05-25T18:30:34.719Z,93917.31
2018-05-25T18:33:02.653Z,93916.11
2018-05-25T18:35:30.212Z,93923.73
2018-05-25T18:37:57.754Z,93913.12
2018-05-25T18:40:25.345Z,93913.86
2018-05-25T18:42:52.899Z,93926.91
2018-05-25T18:45:20.450Z,93940.59
2018-05-25T18:47:48.011Z,93944.35
2018-05-25T18:50:15.555Z,93951.16
2018-05-25T18:52:43.100Z,93954.16
2018-05-25T18:55:10.989Z,93958.27
2018-05-25T18:57:38.561Z,93973.05
2018-05-25T19:00:06.122Z,94004.48
2018-05-25T19:02:33.862Z,94004.47
2018-05-25T19:05:01.412Z,93995.64
2018-05-25T19:07:28.985Z,94003.91
2018-05-25T19:09:56.595Z,93995.23
2018-05-25T19:12:24.163Z,93994.03
2018-05-25T19:14:51.725Z,93993.03
2018-05-25T19:17:19.460Z,93995.59
2018-05-25T19:19:47.065Z,93998.16
2018-05-25T19:22:14.666Z,94003.66
2018-05-25T19:24:42.278Z,94004.22
2018-05-25T19:27:09.843Z,94004.13
2018-05-25T19:29:37.425Z,94007.39
2018-05-25T19:32:05.160Z,94001.99
2018-05-25T19:34:32.696Z,93994.11
2018-05-25T19:37:00.259Z,93993.52
2018-05-25T19:39:28.002Z,93989.88
2018-05-25T19:41:55.580Z,93982.56
2018-05-25T19:44:23.139Z,93971.15
2018-05-25T19:46:50.723Z,93969.20
2018-05-25T19:49:18.297Z,93963.25
2018-05-25T19:51:45.831Z,93955.36
2018-05-25T19:54:13.485Z,93954.96
2018-05-25T19:56:41.613Z,93943.98
2018-05-25T19:59:09.163Z,93941.16
2018-05-25T20:01:36.842Z,93930.66
2018-05-25T20:04:04.463Z,93929.65
2018-05-25T20:06:32.001Z,93941.25
2018-05-25T20:08:59.787Z,93959.48
2018-05-25T20:11:27.332Z,93961.61
2018-05-25T20:13:54.877Z,93982.50
2018-05-25T20:16:22.550Z,93985.63
2018-05-25T20:18:50.103Z,93991.70
2018-05-25T20:21:17.663Z,93994.93
2018-05-25T20:23:45.396Z,93997.70
2018-05-25T20:26:12.961Z,93994.48
2018-05-25T20:28:40.514Z,93992.59
2018-05-25T20:31:08.250Z,93991.30
2018-05-25T20:33:35.793Z,93986.09
2018-05-25T20:36:03.350Z,93976.23
2018-05-25T20:38:30.935Z,93975.39
2018-05-25T20:40:58.479Z,93977.86
2018-05-25T20:43:26.018Z,93969.67
2018-05-25T20:45:54.090Z,93984.33
2018-05-25T20:48:21.709Z,93982.30
2018-05-25T20:50:49.261Z,93989.50
2018-05-25T20:53:17.188Z,93996.05
2018-05-25T20:55:44.727Z,93991.47
2018-05-25T20:58:12.320Z,93992.50
2018-05-25T21:00:40.016Z,94002.39
2018-05-25T21:03:07.572Z,93995.80
2018-05-25T21:05:35.114Z,93990.48
2018-05-25T21:08:02.698Z,93988.02
2018-05-25T21:10:30.257Z,93986.59
2018-05-25T21:12:57.826Z,93986.94
2018-05-25T21:15:25.508Z,94000.63
2018-05-25T21:17:53.108Z,94012.02
2018-05-25T21:20:20.627Z,94015.72
2018-05-25T21:22:48.541Z,94019.77
2018-05-25T21:25:16.109Z,94031.43
2018-05-25T21:27:43.660Z,94032.54
2018-05-25T21:30:11.392Z,94033.46
2018-05-25T21:32:38.952Z,94029.59
2018-05-25T21:35:06.510Z,94023.45
2018-05-25T21:37:34.091Z,94023.09
2018-05-25T21:40:01.639Z,94023.89
2018-05-25T21:42:29.188Z,94024.02
2018-05-25T21:44:56.780Z,94024.08
2018-05-25T21:47:24.329Z,94023.80
2018-05-25T21:49:51.864Z,94024.58
2018-05-25T21:52:19.456Z,94021.32
2018-05-25T21:54:47.082Z,94027.02
2018-05-25T21:57:14.651Z,94024.01
2018-05-25T21:59:42.930Z,94016.37
2018-05-25T22:02:10.499Z,94023.74
2018-05-25T22:04:38.058Z,94018.20
2018-05-25T22:07:05.645Z,94024.87
2018-05-25T22:09:33.213Z,94023.44
2018-05-25T22:12:00.757Z,94029.86
2018-05-25T22:14:28.664Z,94024.69
2018-05-25T22:16:56.331Z,94033.39
2018-05-25T22:19:23.893Z,94033.72
2018-05-25T22:21:51.477Z,94041.47
2018-05-25T22:24:19.033Z,94037.91
2018-05-25T22:26:46.580Z,94039.86
2018-05-25T22:29:14.325Z,94029.05
2018-05-25T22:31:41.876Z,94028.03
2018-05-25T22:34:09.441Z,94035.86
2018-05-25T22:36:37.138Z,94034.80
2018-05-25T22:39:04.732Z,94031.68
2018-05-25T22:41:32.276Z,94026.50
2018-05-25T22:44:11.577Z,94031.04
2018-05-25T22:46:50.907Z,94030.03
2018-05-25T22:49:30.173Z,94031.80
2018-05-25T22:52:09.533Z,94033.50
2018-05-25T22:54:42.969Z,94037.83
2018-05-25T22:57:10.506Z,94029.09
2018-05-25T22:59:38.068Z,94043.06
2018-05-25T23:02:05.749Z,94041.98
2018-05-25T23:04:33.294Z,94043.27
2018-05-25T23:07:00.859Z,94042.73
2018-05-25T23:09:28.595Z,94040.43
2018-05-25T23:11:56.150Z,94033.98
2018-05-25T23:14:23.705Z,94027.97
2018-05-25T23:16:51.281Z,94033.50
2018-05-25T23:19:18.825Z,94030.65
2018-05-25T23:21:46.367Z,94029.05
2018-05-25T23:24:14.067Z,94023.95
2018-05-25T23:26:41.619Z,94025.84
2018-05-25T23:29:09.159Z,94031.81
2018-05-25T23:31:36.741Z,94036.09
2018-05-25T23:34:04.289Z,94029.38
2018-05-25T23:36:31.837Z,94039.84
2018-05-25T23:38:59.500Z,94034.86
2018-05-25T23:41:27.040Z,94037.92
2018-05-25T23:43:54.624Z,94031.38
2018-05-25T23:46:22.198Z,94032.65
2018-05-25T23:48:49.743Z,94037.62
2018-05-25T23:51:17.282Z,94033.84
2018-05-25T23:53:44.882Z,94030.81
2018-05-25T23:56:12.433Z,94036.08
2018-05-25T23:58:39.961Z,94034.23
